createdAt,value
2022-11-02T05:00:30.095Z,0.00
2022-11-02T05:01:30.278Z,0.00
2022-11-02T05:02:30.219Z,0.00
2022-11-02T05:03:30.011Z,0.00
2022-11-02T05:04:29.993Z,0.00
2022-11-02T05:05:29.981Z,0.00
2022-11-02T05:06:29.986Z,0.00
2022-11-02T05:07:29.959Z,0.00
2022-11-02T05:08:29.951Z,0.00
2022-11-02T05:09:29.945Z,0.00
2022-11-02T05:10:29.974Z,0.00
2022-11-02T05:11:34.953Z,0.00
2022-11-02T05:12:29.901Z,0.00
2022-11-02T05:13:29.893Z,0.00
2022-11-02T05:14:30.032Z,0.00
2022-11-02T05:15:29.871Z,0.00
2022-11-02T05:16:29.892Z,0.00
2022-11-02T05:17:29.847Z,0.00
2022-11-02T05:18:29.835Z,0.00
2022-11-02T05:19:29.824Z,0.00
2022-11-02T05:20:29.811Z,0.00
2022-11-02T05:21:29.813Z,0.00
2022-11-02T05:22:34.815Z,0.00
2022-11-02T05:23:29.783Z,0.00
2022-11-02T05:24:29.765Z,0.00
2022-11-02T05:25:29.810Z,0.00
2022-11-02T05:26:29.837Z,0.00
2022-11-02T05:27:29.735Z,0.00
2022-11-02T05:28:29.720Z,0.00
2022-11-02T05:29:29.710Z,0.00
2022-11-02T05:30:29.701Z,0.00
2022-11-02T05:31:29.699Z,0.00
2022-11-02T05:32:29.700Z,0.00
2022-11-02T05:33:34.703Z,0.00
2022-11-02T05:34:29.652Z,0.00
2022-11-02T05:35:29.641Z,0.00
2022-11-02T05:36:29.643Z,0.00
2022-11-02T05:37:29.619Z,0.00
2022-11-02T05:38:29.680Z,0.00
2022-11-02T05:39:29.599Z,0.00
2022-11-02T05:40:29.583Z,0.00
2022-11-02T05:41:29.591Z,0.00
2022-11-02T05:42:29.563Z,0.00
2022-11-02T05:43:29.557Z,0.00
2022-11-02T05:44:34.571Z,0.00
2022-11-02T05:45:29.529Z,0.00
2022-11-02T05:46:29.529Z,0.00
2022-11-02T05:47:29.510Z,0.00
2022-11-02T05:48:29.513Z,0.00
2022-11-02T05:49:29.485Z,0.00
2022-11-02T05:50:29.470Z,4.00
2022-11-02T05:51:29.476Z,0.00
2022-11-02T05:52:29.446Z,0.00
2022-11-02T05:53:29.440Z,4.00
2022-11-02T05:54:29.441Z,4.00
2022-11-02T05:55:34.437Z,4.00
2022-11-02T05:56:29.410Z,4.00
2022-11-02T05:57:29.407Z,4.00
2022-11-02T05:58:29.393Z,8.00
2022-11-02T05:59:29.370Z,4.00
2022-11-02T06:00:29.356Z,8.00
2022-11-02T06:01:29.420Z,8.00
2022-11-02T06:02:29.333Z,12.00
2022-11-02T06:03:29.323Z,12.00
2022-11-02T06:04:29.333Z,12.00
2022-11-02T06:05:29.388Z,16.00
2022-11-02T06:06:34.391Z,20.00
2022-11-02T06:07:29.277Z,20.00
2022-11-02T06:08:29.269Z,24.00
2022-11-02T06:09:29.259Z,24.00
2022-11-02T06:10:29.245Z,28.00
2022-11-02T06:11:29.246Z,32.00
2022-11-02T06:12:29.220Z,32.00
2022-11-02T06:13:29.212Z,36.00
2022-11-02T06:14:29.197Z,40.00
2022-11-02T06:15:29.186Z,44.00
2022-11-02T06:16:29.190Z,48.00
2022-11-02T06:17:34.186Z,48.00
2022-11-02T06:18:29.153Z,52.00
2022-11-02T06:19:29.146Z,60.00
2022-11-02T06:20:29.152Z,64.00
2022-11-02T06:21:29.204Z,68.00
2022-11-02T06:22:29.105Z,76.00
2022-11-02T06:23:29.109Z,84.00
2022-11-02T06:24:29.085Z,92.00
2022-11-02T06:25:29.072Z,96.00
2022-11-02T06:26:29.077Z,104.00
2022-11-02T06:27:29.050Z,108.00
2022-11-02T06:28:34.060Z,116.00
2022-11-02T06:29:29.032Z,120.00
2022-11-02T06:30:29.020Z,116.00
2022-11-02T06:31:29.015Z,112.00
2022-11-02T06:32:28.996Z,124.00
2022-11-02T06:33:28.983Z,132.00
2022-11-02T06:34:28.981Z,136.00
2022-11-02T06:35:28.959Z,140.00
2022-11-02T06:36:28.980Z,148.00
2022-11-02T06:37:28.941Z,152.00
2022-11-02T06:38:28.926Z,156.00
2022-11-02T06:39:34.064Z,160.00
2022-11-02T06:40:28.908Z,164.00
2022-11-02T06:41:28.902Z,160.00
2022-11-02T06:42:28.889Z,168.00
2022-11-02T06:43:28.867Z,172.00
2022-11-02T06:44:28.862Z,176.00
2022-11-02T06:45:28.846Z,184.00
2022-11-02T06:46:28.847Z,188.00
2022-11-02T06:47:28.826Z,188.00
2022-11-02T06:48:34.630Z,192.00
2022-11-02T06:49:29.802Z,192.00
2022-11-02T06:50:33.821Z,196.00
2022-11-02T06:51:28.791Z,200.00
2022-11-02T06:52:28.784Z,208.00
2022-11-02T06:53:28.753Z,216.00
2022-11-02T06:54:28.743Z,220.00
2022-11-02T06:55:28.732Z,228.00
2022-11-02T06:56:28.737Z,240.00
2022-11-02T06:57:28.708Z,248.00
2022-11-02T06:58:28.702Z,256.00
2022-11-02T06:59:28.685Z,260.00
2022-11-02T07:00:28.792Z,264.00
2022-11-02T07:01:33.930Z,272.00
2022-11-02T07:02:28.726Z,276.00
2022-11-02T07:03:28.675Z,288.00
2022-11-02T07:04:28.646Z,296.00
2022-11-02T07:05:28.631Z,300.00
2022-11-02T07:06:28.636Z,312.00
2022-11-02T07:07:28.607Z,320.00
2022-11-02T07:08:28.665Z,332.00
2022-11-02T07:09:28.579Z,344.00
2022-11-02T07:10:28.628Z,356.00
2022-11-02T07:11:28.560Z,376.00
2022-11-02T07:12:33.563Z,376.00
2022-11-02T07:13:28.529Z,376.00
2022-11-02T07:14:28.531Z,396.00
2022-11-02T07:15:28.505Z,388.00
2022-11-02T07:16:28.510Z,400.00
2022-11-02T07:17:32.132Z,404.00
2022-11-02T07:18:28.484Z,400.00
2022-11-02T07:19:28.463Z,412.00
2022-11-02T07:20:28.563Z,416.00
2022-11-02T07:21:28.448Z,436.00
2022-11-02T07:22:28.430Z,436.00
2022-11-02T07:23:33.471Z,432.00
2022-11-02T07:24:28.403Z,436.00
2022-11-02T07:25:28.396Z,444.00
2022-11-02T07:26:28.418Z,452.00
2022-11-02T07:27:28.367Z,460.00
2022-11-02T07:28:28.358Z,464.00
2022-11-02T07:29:28.358Z,468.00
2022-11-02T07:30:28.438Z,484.00
2022-11-02T07:31:28.344Z,484.00
2022-11-02T07:32:28.314Z,500.00
2022-11-02T07:33:28.299Z,536.00
2022-11-02T07:34:33.329Z,572.00
2022-11-02T07:35:28.275Z,544.00
2022-11-02T07:36:28.277Z,540.00
2022-11-02T07:37:28.252Z,544.00
2022-11-02T07:38:28.246Z,552.00
2022-11-02T07:39:28.268Z,556.00
2022-11-02T07:40:28.310Z,572.00
2022-11-02T07:41:28.287Z,568.00
2022-11-02T07:42:28.221Z,600.00
2022-11-02T07:43:28.186Z,624.00
2022-11-02T07:44:28.181Z,652.00
2022-11-02T07:45:33.203Z,688.00
2022-11-02T07:46:28.182Z,728.00
2022-11-02T07:47:28.143Z,788.00
2022-11-02T07:48:28.130Z,808.00
2022-11-02T07:49:28.117Z,788.00
2022-11-02T07:50:28.107Z,768.00
2022-11-02T07:51:28.106Z,776.00
2022-11-02T07:52:28.085Z,788.00
2022-11-02T07:53:28.076Z,796.00
2022-11-02T07:54:28.062Z,800.00
2022-11-02T07:55:28.072Z,788.00
2022-11-02T07:56:33.079Z,824.00
2022-11-02T07:57:28.034Z,820.00
2022-11-02T07:58:28.020Z,816.00
2022-11-02T07:59:28.005Z,836.00
2022-11-02T08:00:27.997Z,872.00
2022-11-02T08:01:28.052Z,904.00
2022-11-02T08:02:28.053Z,864.00
2022-11-02T08:03:28.089Z,908.00
2022-11-02T08:04:27.958Z,908.00
2022-11-02T08:05:27.978Z,916.00
2022-11-02T08:06:27.927Z,928.00
2022-11-02T08:07:32.951Z,936.00
2022-11-02T08:08:27.906Z,952.00
2022-11-02T08:09:27.891Z,964.00
2022-11-02T08:10:27.885Z,984.00
2022-11-02T08:11:27.886Z,1000.00
2022-11-02T08:12:27.869Z,996.00
2022-11-02T08:13:32.755Z,1016.00
2022-11-02T08:14:28.841Z,1024.00
2022-11-02T08:15:27.821Z,1040.00
2022-11-02T08:16:27.814Z,1020.00
2022-11-02T08:17:27.819Z,1012.00
2022-11-02T08:18:32.820Z,1076.00
2022-11-02T08:19:27.781Z,1100.00
2022-11-02T08:20:27.772Z,1116.00
2022-11-02T08:21:27.756Z,1116.00
2022-11-02T08:22:27.768Z,1132.00
2022-11-02T08:23:27.752Z,1104.00
2022-11-02T08:24:27.725Z,1096.00
2022-11-02T08:25:27.713Z,1104.00
2022-11-02T08:26:27.704Z,1084.00
2022-11-02T08:27:27.722Z,1048.00
2022-11-02T08:28:27.679Z,1032.00
2022-11-02T08:29:32.690Z,1044.00
2022-11-02T08:30:27.659Z,1080.00
2022-11-02T08:31:27.652Z,1172.00
2022-11-02T08:32:27.649Z,1260.00
2022-11-02T08:33:27.627Z,1360.00
2022-11-02T08:34:27.672Z,1364.00
2022-11-02T08:35:27.599Z,1776.00
2022-11-02T08:36:27.598Z,2604.00
2022-11-02T08:37:27.616Z,3940.00
2022-11-02T08:38:27.570Z,4636.00
2022-11-02T08:39:27.555Z,4808.00
2022-11-02T08:40:32.569Z,4832.00
2022-11-02T08:41:27.533Z,4208.00
2022-11-02T08:42:27.537Z,2356.00
2022-11-02T08:43:27.529Z,2776.00
2022-11-02T08:44:27.509Z,2004.00
2022-11-02T08:45:27.494Z,1960.00
2022-11-02T08:46:27.476Z,2044.00
2022-11-02T08:47:27.479Z,2292.00
2022-11-02T08:48:27.458Z,2528.00
2022-11-02T08:49:27.442Z,3240.00
2022-11-02T08:50:27.434Z,4568.00
2022-11-02T08:51:32.447Z,4620.00
2022-11-02T08:52:27.418Z,4656.00
2022-11-02T08:53:27.399Z,4020.00
2022-11-02T08:54:27.385Z,3324.00
2022-11-02T08:55:27.380Z,3832.00
2022-11-02T08:56:27.377Z,4132.00
2022-11-02T08:57:27.365Z,5184.00
2022-11-02T08:58:27.352Z,5676.00
2022-11-02T08:59:27.367Z,5484.00
2022-11-02T09:00:27.318Z,4836.00
2022-11-02T09:01:27.366Z,4020.00
2022-11-02T09:02:32.395Z,3964.00
2022-11-02T09:03:27.795Z,4696.00
2022-11-02T09:04:27.273Z,4520.00
2022-11-02T09:05:27.260Z,4816.00
2022-11-02T09:06:27.251Z,3940.00
2022-11-02T09:07:27.268Z,4480.00
2022-11-02T09:08:27.230Z,4020.00
2022-11-02T09:09:27.217Z,3308.00
2022-11-02T09:10:27.232Z,2756.00
2022-11-02T09:11:27.191Z,2652.00
2022-11-02T09:12:27.198Z,2876.00
2022-11-02T09:13:32.264Z,3592.00
2022-11-02T09:14:27.230Z,4144.00
2022-11-02T09:15:27.175Z,3692.00
2022-11-02T09:16:27.137Z,3712.00
2022-11-02T09:17:27.138Z,4036.00
2022-11-02T09:18:27.134Z,4732.00
2022-11-02T09:19:27.102Z,4584.00
2022-11-02T09:20:27.096Z,4380.00
2022-11-02T09:21:27.106Z,4272.00
2022-11-02T09:22:27.090Z,4120.00
2022-11-02T09:23:27.061Z,3752.00
2022-11-02T09:24:32.075Z,2316.00
2022-11-02T09:25:27.036Z,3552.00
2022-11-02T09:26:27.024Z,3544.00
2022-11-02T09:27:27.026Z,3256.00
2022-11-02T09:28:27.006Z,3072.00
2022-11-02T09:29:26.996Z,3212.00
2022-11-02T09:30:26.980Z,3148.00
2022-11-02T09:31:26.988Z,3316.00
2022-11-02T09:32:26.970Z,3280.00
2022-11-02T09:33:26.947Z,3184.00
2022-11-02T09:34:26.932Z,4160.00
2022-11-02T09:35:31.960Z,6612.00
2022-11-02T09:36:26.926Z,6232.00
2022-11-02T09:37:26.918Z,6148.00
2022-11-02T09:38:26.885Z,4804.00
2022-11-02T09:39:26.875Z,4256.00
2022-11-02T09:40:26.869Z,2320.00
2022-11-02T09:41:26.860Z,2460.00
2022-11-02T09:42:26.847Z,3436.00
2022-11-02T09:43:31.886Z,4188.00
2022-11-02T09:44:27.818Z,3304.00
2022-11-02T09:45:26.805Z,2636.00
2022-11-02T09:46:31.834Z,2552.00
2022-11-02T09:48:11.217Z,2156.00
2022-11-02T09:48:28.754Z,3236.00
2022-11-02T09:49:26.765Z,2036.00
2022-11-02T09:51:26.740Z,1736.00
2022-11-02T09:52:26.740Z,1660.00
2022-11-02T09:53:26.726Z,1768.00
2022-11-02T09:54:26.701Z,1804.00
2022-11-02T09:55:26.688Z,1804.00
2022-11-02T09:56:26.680Z,1948.00
2022-11-02T09:57:31.703Z,1932.00
2022-11-02T09:58:26.664Z,2388.00
2022-11-02T09:59:26.652Z,2384.00
2022-11-02T10:00:26.634Z,1344.00
2022-11-02T10:01:26.671Z,1916.00
2022-11-02T10:02:26.680Z,1548.00
2022-11-02T10:03:26.607Z,2468.00
2022-11-02T10:04:26.585Z,2408.00
2022-11-02T10:05:26.577Z,2244.00
2022-11-02T10:06:26.682Z,1140.00
2022-11-02T10:07:26.566Z,1808.00
2022-11-02T10:08:31.568Z,1964.00
2022-11-02T10:09:26.527Z,2060.00
2022-11-02T10:10:26.519Z,2356.00
2022-11-02T10:11:26.542Z,2448.00
2022-11-02T10:12:26.547Z,2184.00
2022-11-02T10:13:26.481Z,1672.00
2022-11-02T10:14:26.486Z,1920.00
2022-11-02T10:15:26.458Z,1936.00
2022-11-02T10:16:26.452Z,1932.00
2022-11-02T10:17:26.446Z,1764.00
2022-11-02T10:18:26.461Z,1744.00
2022-11-02T10:19:31.437Z,1616.00
2022-11-02T10:20:26.402Z,1716.00
2022-11-02T10:21:26.398Z,1576.00
2022-11-02T10:22:26.391Z,1560.00
2022-11-02T10:23:26.368Z,1616.00
2022-11-02T10:24:26.359Z,1544.00
2022-11-02T10:25:26.349Z,1564.00
2022-11-02T10:26:26.337Z,1568.00
2022-11-02T10:27:26.353Z,1548.00
2022-11-02T10:28:26.387Z,1520.00
2022-11-02T10:29:26.306Z,1556.00
2022-11-02T10:30:31.316Z,1636.00
2022-11-02T10:31:26.291Z,1812.00
2022-11-02T10:32:26.324Z,1884.00
2022-11-02T10:33:26.259Z,2100.00
2022-11-02T10:34:26.275Z,3640.00
2022-11-02T10:35:40.669Z,4192.00
2022-11-02T10:36:27.228Z,2832.00
2022-11-02T10:37:26.282Z,1728.00
2022-11-02T10:38:26.201Z,1592.00
2022-11-02T10:39:26.190Z,1680.00
2022-11-02T10:40:26.183Z,1624.00
2022-11-02T10:41:31.191Z,1644.00
2022-11-02T10:42:26.169Z,1572.00
2022-11-02T10:43:26.159Z,1564.00
2022-11-02T10:44:26.136Z,1560.00
2022-11-02T10:45:26.126Z,1572.00
2022-11-02T10:46:26.120Z,1576.00
2022-11-02T10:47:26.110Z,1564.00
2022-11-02T10:48:26.107Z,1596.00
2022-11-02T10:49:26.077Z,1832.00
2022-11-02T10:50:26.089Z,1676.00
2022-11-02T10:51:26.076Z,1608.00
2022-11-02T10:52:31.068Z,1600.00
2022-11-02T10:53:42.338Z,1564.00
2022-11-02T10:54:33.333Z,1556.00
2022-11-02T10:55:27.021Z,1580.00
2022-11-02T10:56:25.997Z,1556.00
2022-11-02T10:57:25.989Z,1964.00
2022-11-02T10:58:25.988Z,3156.00
2022-11-02T10:59:25.968Z,2860.00
2022-11-02T11:00:26.038Z,2864.00
2022-11-02T11:01:26.055Z,3196.00
2022-11-02T11:02:25.938Z,3496.00
2022-11-02T11:03:30.956Z,3912.00
2022-11-02T11:04:25.913Z,3796.00
2022-11-02T11:05:25.903Z,3132.00
2022-11-02T11:06:25.917Z,3092.00
2022-11-02T11:07:25.890Z,2860.00
2022-11-02T11:08:25.867Z,2808.00
2022-11-02T11:09:25.856Z,3044.00
2022-11-02T11:10:25.848Z,2768.00
2022-11-02T11:11:25.831Z,2556.00
2022-11-02T11:12:25.836Z,2072.00
2022-11-02T11:16:26.774Z,1616.00
2022-11-02T11:19:42.080Z,1528.00
2022-11-02T11:20:26.731Z,1516.00
2022-11-02T11:21:25.740Z,1880.00
2022-11-02T11:22:25.832Z,2068.00
2022-11-02T11:23:25.702Z,1948.00
2022-11-02T11:24:25.778Z,2424.00
2022-11-02T11:25:30.696Z,2336.00
2022-11-02T11:26:25.676Z,2128.00
2022-11-02T11:27:25.692Z,1748.00
2022-11-02T11:28:25.636Z,1648.00
2022-11-02T11:29:25.628Z,1520.00
2022-11-02T11:30:53.960Z,1460.00
2022-11-02T11:31:26.617Z,1460.00
2022-11-02T11:32:29.925Z,1492.00
2022-11-02T11:33:26.586Z,1656.00
2022-11-02T11:34:25.571Z,1644.00
2022-11-02T11:35:25.642Z,1984.00
2022-11-02T11:36:30.873Z,1904.00
2022-11-02T11:37:25.574Z,1852.00
2022-11-02T11:38:25.551Z,1840.00
2022-11-02T11:39:25.519Z,1924.00
2022-11-02T11:40:25.503Z,1892.00
2022-11-02T11:41:25.496Z,1600.00
2022-11-02T11:42:25.482Z,1628.00
2022-11-02T11:43:25.492Z,1560.00
2022-11-02T11:44:25.464Z,1504.00
2022-11-02T11:45:25.468Z,1548.00
2022-11-02T11:46:25.439Z,1508.00
2022-11-02T11:47:30.459Z,1428.00
2022-11-02T11:48:25.430Z,1308.00
2022-11-02T11:49:36.326Z,1404.00
2022-11-02T11:50:29.111Z,1408.00
2022-11-02T11:51:26.280Z,1320.00
2022-11-02T11:52:30.876Z,1464.00
2022-11-02T11:53:26.374Z,1460.00
2022-11-02T11:54:25.378Z,1416.00
2022-11-02T11:55:25.345Z,1308.00
2022-11-02T11:56:25.338Z,1420.00
2022-11-02T11:57:25.431Z,1368.00
2022-11-02T11:58:30.336Z,1420.00
2022-11-02T11:59:25.290Z,1380.00
2022-11-02T12:00:25.279Z,1408.00
2022-11-02T12:01:25.326Z,1480.00
2022-11-02T12:02:25.571Z,1420.00
2022-11-02T12:03:25.346Z,1412.00
2022-11-02T12:04:25.239Z,1424.00
2022-11-02T12:05:25.241Z,1368.00
2022-11-02T12:06:25.212Z,1404.00
2022-11-02T12:07:25.210Z,1348.00
2022-11-02T12:08:25.215Z,1332.00
2022-11-02T12:09:30.225Z,1356.00
2022-11-02T12:10:25.173Z,1448.00
2022-11-02T12:11:25.156Z,1372.00
2022-11-02T12:12:25.143Z,1352.00
2022-11-02T12:13:25.145Z,1364.00
2022-11-02T12:14:25.123Z,1360.00
2022-11-02T12:15:25.126Z,1368.00
2022-11-02T12:16:25.131Z,1368.00
2022-11-02T12:17:25.087Z,1368.00
2022-11-02T12:18:25.098Z,1368.00
2022-11-02T12:19:27.371Z,1384.00
2022-11-02T12:20:30.085Z,1340.00
2022-11-02T12:21:25.043Z,1368.00
2022-11-02T12:22:25.038Z,1412.00
2022-11-02T12:23:25.033Z,1432.00
2022-11-02T12:24:25.016Z,1440.00
2022-11-02T12:25:25.028Z,1452.00
2022-11-02T12:26:24.985Z,1492.00
2022-11-02T12:27:24.973Z,1448.00
2022-11-02T12:28:24.971Z,1440.00
2022-11-02T12:29:24.956Z,1272.00
2022-11-02T12:30:24.939Z,1376.00
2022-11-02T12:31:29.950Z,1364.00
2022-11-02T12:32:24.912Z,1368.00
2022-11-02T12:33:24.916Z,1492.00
2022-11-02T12:34:24.893Z,1344.00
2022-11-02T12:35:29.708Z,1312.00
2022-11-02T12:36:25.878Z,1592.00
2022-11-02T12:37:40.453Z,1824.00
2022-11-02T12:38:25.861Z,1644.00
2022-11-02T12:39:24.836Z,1368.00
2022-11-02T12:41:24.837Z,1308.00
2022-11-02T12:42:29.820Z,1384.00
2022-11-02T12:43:24.831Z,1348.00
2022-11-02T12:44:24.777Z,1332.00
2022-11-02T12:45:24.772Z,1304.00
2022-11-02T12:46:24.757Z,1332.00
2022-11-02T12:47:24.751Z,1512.00
2022-11-02T12:48:24.753Z,1528.00
2022-11-02T12:49:24.722Z,1524.00
2022-11-02T12:50:24.709Z,1460.00
2022-11-02T12:51:24.706Z,1340.00
2022-11-02T12:52:24.693Z,1316.00
2022-11-02T12:53:29.713Z,1340.00
2022-11-02T12:54:24.666Z,1388.00
2022-11-02T12:55:24.670Z,1320.00
2022-11-02T12:56:24.649Z,1296.00
2022-11-02T12:57:24.652Z,1372.00
2022-11-02T12:58:24.636Z,1392.00
2022-11-02T12:59:24.622Z,1220.00
2022-11-02T13:00:24.598Z,1184.00
2022-11-02T13:01:24.755Z,1160.00
2022-11-02T13:02:24.654Z,1144.00
2022-11-02T13:03:24.589Z,1168.00
2022-11-02T13:04:31.891Z,1168.00
2022-11-02T13:05:24.613Z,1132.00
2022-11-02T13:06:24.585Z,1140.00
2022-11-02T13:07:24.521Z,1140.00
2022-11-02T13:08:25.226Z,1144.00
2022-11-02T13:09:24.500Z,1224.00
2022-11-02T13:10:24.490Z,1196.00
2022-11-02T13:11:24.477Z,1188.00
2022-11-02T13:12:24.465Z,1152.00
2022-11-02T13:13:24.483Z,1244.00
2022-11-02T13:14:24.452Z,1552.00
2022-11-02T13:15:29.542Z,1344.00
2022-11-02T13:16:24.418Z,1256.00
2022-11-02T13:17:24.408Z,1208.00
2022-11-02T13:18:24.415Z,1512.00
2022-11-02T13:19:24.389Z,1788.00
2022-11-02T13:20:24.381Z,1420.00
2022-11-02T13:21:24.409Z,1248.00
2022-11-02T13:22:24.351Z,1308.00
2022-11-02T13:23:24.472Z,1452.00
2022-11-02T13:24:27.869Z,1564.00
2022-11-02T13:25:25.334Z,1536.00
2022-11-02T13:26:29.336Z,1468.00
2022-11-02T13:27:35.817Z,1396.00
2022-11-02T13:28:25.296Z,1204.00
2022-11-02T13:29:24.292Z,1164.00
2022-11-02T13:30:24.274Z,1108.00
2022-11-02T13:31:24.249Z,1092.00
2022-11-02T13:32:24.992Z,1080.00
2022-11-02T13:33:24.244Z,1068.00
2022-11-02T13:34:24.217Z,1064.00
2022-11-02T13:35:24.204Z,1064.00
2022-11-02T13:36:24.214Z,1116.00
2022-11-02T13:37:29.212Z,1084.00
2022-11-02T13:38:24.224Z,1108.00
2022-11-02T13:39:24.159Z,1076.00
2022-11-02T13:40:24.148Z,1072.00
2022-11-02T13:41:24.140Z,1076.00
2022-11-02T13:42:24.131Z,1060.00
2022-11-02T13:43:24.130Z,1060.00
2022-11-02T13:44:24.113Z,1096.00
2022-11-02T13:45:24.183Z,1096.00
2022-11-02T13:46:24.079Z,1056.00
2022-11-02T13:47:24.080Z,1056.00
2022-11-02T13:48:29.098Z,1040.00
2022-11-02T13:49:24.047Z,1044.00
2022-11-02T13:50:24.031Z,1028.00
2022-11-02T13:51:24.026Z,1036.00
2022-11-02T13:52:24.013Z,1048.00
2022-11-02T13:53:24.006Z,1044.00
2022-11-02T13:54:24.011Z,1024.00
2022-11-02T13:55:23.979Z,1052.00
2022-11-02T13:56:23.965Z,1060.00
2022-11-02T13:57:23.958Z,1052.00
2022-11-02T13:58:23.954Z,1024.00
2022-11-02T13:59:28.983Z,1016.00
2022-11-02T14:00:23.919Z,1028.00
2022-11-02T14:01:24.030Z,1000.00
2022-11-02T14:02:24.054Z,1008.00
2022-11-02T14:03:23.888Z,1004.00
2022-11-02T14:04:23.894Z,1000.00
2022-11-02T14:05:23.868Z,1000.00
2022-11-02T14:06:23.853Z,996.00
2022-11-02T14:07:23.844Z,992.00
2022-11-02T14:08:23.832Z,996.00
2022-11-02T14:09:23.839Z,1052.00
2022-11-02T14:10:28.833Z,1000.00
2022-11-02T14:11:23.798Z,1032.00
2022-11-02T14:12:23.784Z,1020.00
2022-11-02T14:13:23.776Z,1048.00
2022-11-02T14:14:23.772Z,1172.00
2022-11-02T14:15:23.757Z,1308.00
2022-11-02T14:16:23.759Z,1420.00
2022-11-02T14:17:23.756Z,1524.00
2022-11-02T14:18:23.716Z,1364.00
2022-11-02T14:19:23.720Z,1092.00
2022-11-02T14:20:23.694Z,1008.00
2022-11-02T14:21:28.719Z,984.00
2022-11-02T14:22:23.678Z,1044.00
2022-11-02T14:23:23.663Z,1060.00
2022-11-02T14:24:23.667Z,1040.00
2022-11-02T14:25:23.648Z,944.00
2022-11-02T14:26:23.636Z,880.00
2022-11-02T14:27:23.620Z,900.00
2022-11-02T14:28:23.608Z,888.00
2022-11-02T14:29:23.608Z,876.00
2022-11-02T14:30:23.584Z,880.00
2022-11-02T14:31:23.574Z,876.00
2022-11-02T14:32:28.608Z,852.00
2022-11-02T14:33:23.564Z,864.00
2022-11-02T14:34:23.550Z,872.00
2022-11-02T14:35:23.536Z,872.00
2022-11-02T14:36:23.516Z,904.00
2022-11-02T14:37:23.511Z,904.00
2022-11-02T14:38:23.504Z,908.00
2022-11-02T14:39:23.483Z,908.00
2022-11-02T14:40:23.481Z,904.00
2022-11-02T14:41:23.469Z,908.00
2022-11-02T14:42:23.452Z,856.00
2022-11-02T14:43:28.467Z,872.00
2022-11-02T14:44:23.442Z,836.00
2022-11-02T14:45:23.465Z,820.00
2022-11-02T14:46:23.406Z,792.00
2022-11-02T14:47:23.409Z,780.00
2022-11-02T14:48:23.399Z,772.00
2022-11-02T14:49:23.371Z,776.00
2022-11-02T14:50:23.381Z,768.00
2022-11-02T14:51:23.347Z,744.00
2022-11-02T14:52:23.335Z,716.00
2022-11-02T14:53:23.328Z,704.00
2022-11-02T14:54:28.360Z,680.00
2022-11-02T14:55:23.320Z,664.00
2022-11-02T14:56:23.340Z,632.00
2022-11-02T14:57:23.286Z,632.00
2022-11-02T14:58:23.267Z,636.00
2022-11-02T14:59:23.259Z,628.00
2022-11-02T15:00:23.254Z,620.00
2022-11-02T15:01:23.237Z,620.00
2022-11-02T15:02:23.228Z,612.00
2022-11-02T15:03:23.237Z,608.00
2022-11-02T15:04:23.220Z,592.00
2022-11-02T15:05:28.221Z,604.00
2022-11-02T15:06:23.182Z,580.00
2022-11-02T15:07:23.164Z,576.00
2022-11-02T15:08:23.156Z,572.00
2022-11-02T15:09:23.144Z,580.00
2022-11-02T15:10:23.152Z,584.00
2022-11-02T15:11:23.135Z,568.00
2022-11-02T15:12:23.112Z,552.00
2022-11-02T15:13:23.097Z,532.00
2022-11-02T15:14:23.087Z,516.00
2022-11-02T15:15:23.095Z,500.00
2022-11-02T15:16:28.110Z,480.00
2022-11-02T15:17:23.060Z,448.00
2022-11-02T15:18:23.049Z,428.00
2022-11-02T15:19:23.030Z,424.00
2022-11-02T15:20:23.052Z,420.00
2022-11-02T15:21:23.007Z,388.00
2022-11-02T15:22:22.996Z,372.00
2022-11-02T15:23:30.639Z,380.00
2022-11-02T15:24:23.971Z,380.00
2022-11-02T15:25:22.975Z,372.00
2022-11-02T15:26:22.950Z,368.00
2022-11-02T15:27:27.963Z,360.00
2022-11-02T15:28:22.930Z,356.00
2022-11-02T15:29:22.917Z,348.00
2022-11-02T15:30:28.036Z,344.00
2022-11-02T15:31:26.294Z,332.00
2022-11-02T15:32:23.207Z,312.00
2022-11-02T15:33:22.869Z,292.00
2022-11-02T15:34:22.871Z,276.00
2022-11-02T15:35:22.849Z,256.00
2022-11-02T15:36:22.884Z,248.00
2022-11-02T15:37:22.826Z,236.00
2022-11-02T15:38:32.612Z,224.00
2022-11-02T15:39:23.801Z,224.00
2022-11-02T15:40:22.801Z,224.00
2022-11-02T15:41:22.791Z,216.00
2022-11-02T15:42:22.787Z,204.00
2022-11-02T15:43:22.757Z,188.00
2022-11-02T15:44:22.751Z,180.00
2022-11-02T15:46:23.738Z,164.00
2022-11-02T15:47:22.717Z,148.00
2022-11-02T15:48:22.701Z,140.00
2022-11-02T15:49:27.717Z,128.00
2022-11-02T15:50:22.678Z,120.00
2022-11-02T15:51:22.679Z,112.00
2022-11-02T15:52:22.675Z,104.00
2022-11-02T15:53:23.979Z,92.00
2022-11-02T15:54:22.632Z,80.00
2022-11-02T15:55:22.618Z,72.00
2022-11-02T15:56:22.628Z,68.00
2022-11-02T15:57:22.596Z,64.00
2022-11-02T15:58:22.586Z,60.00
2022-11-02T15:59:22.582Z,52.00
2022-11-02T16:00:27.589Z,48.00
2022-11-02T16:01:22.783Z,44.00
2022-11-02T16:02:22.687Z,40.00
2022-11-02T16:03:22.529Z,36.00
2022-11-02T16:04:22.530Z,36.00
2022-11-02T16:05:22.631Z,32.00
2022-11-02T16:06:22.535Z,28.00
2022-11-02T16:07:24.014Z,24.00
2022-11-02T16:08:22.913Z,24.00
2022-11-02T16:09:22.462Z,20.00
2022-11-02T16:10:22.460Z,20.00
2022-11-02T16:11:27.479Z,20.00
2022-11-02T16:12:22.427Z,16.00
2022-11-02T16:13:22.418Z,16.00
2022-11-02T16:14:22.403Z,12.00
2022-11-02T16:15:22.429Z,12.00
2022-11-02T16:16:22.406Z,8.00
2022-11-02T16:17:22.370Z,8.00
2022-11-02T16:18:22.360Z,8.00
2022-11-02T16:19:22.350Z,4.00
2022-11-02T16:20:22.340Z,4.00
2022-11-02T16:21:22.336Z,4.00
2022-11-02T16:22:27.336Z,4.00
2022-11-02T16:23:22.300Z,0.00
2022-11-02T16:24:22.326Z,0.00
2022-11-02T16:25:22.310Z,4.00
2022-11-02T16:26:22.334Z,4.00
2022-11-02T16:27:22.308Z,0.00
2022-11-02T16:28:22.247Z,0.00
2022-11-02T16:29:22.233Z,0.00
2022-11-02T16:30:22.227Z,0.00
2022-11-02T16:31:22.234Z,0.00
2022-11-02T16:32:22.209Z,0.00
2022-11-02T16:33:27.217Z,0.00
2022-11-02T16:34:22.180Z,0.00
2022-11-02T16:35:22.200Z,0.00
2022-11-02T16:36:22.165Z,0.00
2022-11-02T16:37:22.143Z,0.00
2022-11-02T16:38:22.134Z,0.00
2022-11-02T16:39:22.131Z,0.00
2022-11-02T16:40:22.195Z,0.00
2022-11-02T16:41:22.108Z,0.00
2022-11-02T16:42:22.087Z,0.00
2022-11-02T16:43:22.107Z,0.00
2022-11-02T16:44:27.088Z,0.00
2022-11-02T16:45:22.160Z,0.00
2022-11-02T16:46:22.060Z,0.00
2022-11-02T16:47:22.035Z,0.00
2022-11-02T16:48:22.024Z,0.00
2022-11-02T16:49:22.012Z,0.00
2022-11-02T16:50:21.997Z,0.00
2022-11-02T16:51:21.996Z,0.00
2022-11-02T16:52:21.980Z,0.00
2022-11-02T16:53:21.961Z,0.00
2022-11-02T16:54:21.963Z,0.00
2022-11-02T16:55:26.976Z,0.00
2022-11-02T16:56:21.946Z,0.00
2022-11-02T16:57:21.914Z,0.00
2022-11-02T16:58:21.904Z,0.00
2022-11-02T16:59:21.897Z,0.00
2022-11-02T17:00:21.902Z,0.00
2022-11-02T17:01:22.040Z,0.00
2022-11-02T17:02:21.925Z,0.00
2022-11-02T17:03:21.852Z,0.00
2022-11-02T17:04:21.841Z,0.00
2022-11-02T17:05:21.825Z,0.00
2022-11-02T17:06:26.844Z,0.00
2022-11-02T17:07:21.815Z,0.00
2022-11-02T17:08:21.793Z,0.00
2022-11-02T17:09:21.781Z,0.00
2022-11-02T17:10:21.777Z,0.00
2022-11-02T17:11:21.777Z,0.00
2022-11-02T17:12:21.773Z,0.00
2022-11-02T17:13:22.266Z,0.00
2022-11-02T17:14:21.735Z,0.00
2022-11-02T17:15:21.718Z,0.00
2022-11-02T17:16:21.703Z,0.00
2022-11-02T17:17:26.746Z,0.00
2022-11-02T17:18:21.685Z,0.00
2022-11-02T17:19:21.671Z,0.00
2022-11-02T17:20:21.655Z,0.00
2022-11-02T17:21:21.669Z,0.00
2022-11-02T17:22:21.642Z,0.00
2022-11-02T17:23:21.617Z,0.00
2022-11-02T17:24:21.610Z,0.00
2022-11-02T17:25:21.594Z,0.00
2022-11-02T17:26:21.586Z,0.00
2022-11-02T17:27:21.617Z,0.00
2022-11-02T17:28:26.585Z,0.00
2022-11-02T17:29:21.550Z,0.00
2022-11-02T17:30:21.538Z,0.00
2022-11-02T17:31:21.524Z,0.00
2022-11-02T17:32:21.528Z,0.00
2022-11-02T17:33:21.502Z,0.00
2022-11-02T17:34:21.632Z,0.00
2022-11-02T17:35:26.863Z,0.00